OCN2SH EDDM-LPMA
Flight info
| Callsign | OCN2SH |
|---|---|
| Flight time | 3h 58m |
| Altitude | 35000 |
| Route | ALG Y109 UMTEX Y100 TRA DCT LUTIX DCT BENOT DCT NEMOS DCT NINTU DCT MEBAK DCT REPSI DCT LERGA DCT MINSO DCT NARAK DCT AGN DCT PIPOR L866 PPN N976 NEA DCT ARDID DCT FERFE/N0448F370 DCT NASAS DCT RAKUN |
| Aircraft | A320/M-SDE2E3FGIJ1LORWXYZ/HB1 |
Departure
| Time | 2026-05-07 02:53 |
|---|---|
| Airport | Munich Airport (EDDM) |
Arrival
| Time | 2026-05-07 06:52 |
|---|---|
| Airport | Cristiano Ronaldo International Airport (LPMA) |
| Time | Latitude | Longitude | Altitude | Speed | Heading |
|---|---|---|---|---|---|
| 2026-05-07 02:01 | 48.35073 | 11.80820 | 1486 ft | 0 kts | 173° |
| 2026-05-07 02:45 | 48.35084 | 11.80818 | 1485 ft | 4 kts | 173° |
| 2026-05-07 02:46 | 48.35111 | 11.80813 | 1475 ft | 4 kts | 173° |
| 2026-05-07 02:46 | 48.35132 | 11.80809 | 1478 ft | 4 kts | 176° |
| 2026-05-07 02:46 | 48.35156 | 11.80815 | 1474 ft | 4 kts | 225° |
| 2026-05-07 02:46 | 48.35166 | 11.80846 | 1471 ft | 4 kts | 263° |
| 2026-05-07 02:47 | 48.35167 | 11.80867 | 1474 ft | 0 kts | 263° |
| 2026-05-07 02:48 | 48.35164 | 11.80831 | 1478 ft | 9 kts | 263° |
| 2026-05-07 02:49 | 48.35154 | 11.80690 | 1481 ft | 18 kts | 263° |
| 2026-05-07 02:49 | 48.35138 | 11.80496 | 1476 ft | 19 kts | 263° |
| 2026-05-07 02:49 | 48.35118 | 11.80299 | 1485 ft | 19 kts | 258° |
| 2026-05-07 02:49 | 48.35101 | 11.80099 | 1485 ft | 19 kts | 263° |
| 2026-05-07 02:50 | 48.35086 | 11.79894 | 1481 ft | 20 kts | 263° |
| 2026-05-07 02:50 | 48.35060 | 11.79693 | 1474 ft | 19 kts | 233° |
| 2026-05-07 02:50 | 48.34935 | 11.79679 | 1485 ft | 19 kts | 174° |
| 2026-05-07 02:50 | 48.34815 | 11.79735 | 1485 ft | 18 kts | 120° |
| 2026-05-07 02:51 | 48.34821 | 11.79947 | 1485 ft | 24 kts | 83° |
| 2026-05-07 02:51 | 48.34805 | 11.80186 | 1475 ft | 23 kts | 126° |
| 2026-05-07 02:51 | 48.34656 | 11.80260 | 1485 ft | 23 kts | 172° |
| 2026-05-07 02:51 | 48.34495 | 11.80257 | 1485 ft | 23 kts | 208° |
| 2026-05-07 02:52 | 48.34448 | 11.80048 | 1474 ft | 22 kts | 264° |
| 2026-05-07 02:52 | 48.34422 | 11.79716 | 1478 ft | 57 kts | 263° |
| 2026-05-07 02:52 | 48.34352 | 11.78815 | 1485 ft | 117 kts | 263° |
| 2026-05-07 02:52 | 48.34239 | 11.77350 | 1488 ft | 163 kts | 263° |
| 2026-05-07 02:53 | 48.34101 | 11.75592 | 2008 ft | 169 kts | 263° |
| 2026-05-07 02:53 | 48.33974 | 11.73834 | 2799 ft | 170 kts | 263° |
| 2026-05-07 02:53 | 48.33840 | 11.72009 | 3170 ft | 185 kts | 264° |
| 2026-05-07 02:53 | 48.33688 | 11.69994 | 3481 ft | 203 kts | 264° |
| 2026-05-07 02:54 | 48.33525 | 11.67856 | 4166 ft | 206 kts | 264° |
| 2026-05-07 02:54 | 48.33360 | 11.65706 | 4928 ft | 208 kts | 264° |
| 2026-05-07 02:54 | 48.33193 | 11.63499 | 5434 ft | 221 kts | 264° |
| 2026-05-07 02:54 | 48.32984 | 11.61097 | 5793 ft | 241 kts | 256° |
| 2026-05-07 02:55 | 48.32449 | 11.58669 | 6493 ft | 247 kts | 251° |
| 2026-05-07 02:55 | 48.31870 | 11.56217 | 7252 ft | 251 kts | 251° |
| 2026-05-07 02:55 | 48.31277 | 11.53731 | 7998 ft | 255 kts | 251° |
| 2026-05-07 02:55 | 48.30674 | 11.51207 | 8741 ft | 259 kts | 250° |
| 2026-05-07 02:56 | 48.30060 | 11.48637 | 9487 ft | 263 kts | 250° |
| 2026-05-07 02:56 | 48.29435 | 11.46026 | 10155 ft | 270 kts | 250° |
| 2026-05-07 02:56 | 48.29002 | 11.44218 | 10302 ft | 285 kts | 250° |
| 2026-05-07 02:56 | 48.28065 | 11.40310 | 10508 ft | 315 kts | 250° |
| 2026-05-07 02:57 | 48.27310 | 11.37153 | 10955 ft | 325 kts | 250° |
| 2026-05-07 02:57 | 48.26542 | 11.33934 | 11584 ft | 330 kts | 250° |
| 2026-05-07 02:57 | 48.26016 | 11.31736 | 12026 ft | 332 kts | 250° |
| 2026-05-07 02:57 | 48.25229 | 11.28459 | 12681 ft | 336 kts | 249° |
| 2026-05-07 02:58 | 48.24431 | 11.25144 | 13328 ft | 339 kts | 249° |
| 2026-05-07 02:58 | 48.23625 | 11.21804 | 13942 ft | 343 kts | 249° |
| 2026-05-07 02:58 | 48.22810 | 11.18426 | 14522 ft | 346 kts | 249° |
| 2026-05-07 02:58 | 48.21986 | 11.15018 | 15078 ft | 349 kts | 249° |
| 2026-05-07 02:59 | 48.21151 | 11.11578 | 15653 ft | 352 kts | 249° |
| 2026-05-07 02:59 | 48.20323 | 11.08165 | 16231 ft | 354 kts | 249° |
| 2026-05-07 02:59 | 48.19478 | 11.04684 | 16804 ft | 357 kts | 249° |
| 2026-05-07 02:59 | 48.18626 | 11.01182 | 17371 ft | 359 kts | 249° |
| 2026-05-07 03:00 | 48.17765 | 10.97658 | 17931 ft | 361 kts | 248° |
| 2026-05-07 03:00 | 48.16899 | 10.94114 | 18453 ft | 363 kts | 248° |
| 2026-05-07 03:00 | 48.16026 | 10.90549 | 18915 ft | 366 kts | 248° |
| 2026-05-07 03:00 | 48.15146 | 10.86952 | 19356 ft | 369 kts | 248° |
| 2026-05-07 03:01 | 48.14259 | 10.83333 | 19799 ft | 372 kts | 248° |
| 2026-05-07 03:01 | 48.13364 | 10.79690 | 20260 ft | 374 kts | 247° |
| 2026-05-07 03:01 | 48.12460 | 10.76023 | 20709 ft | 376 kts | 247° |
| 2026-05-07 03:01 | 48.11550 | 10.72337 | 21122 ft | 380 kts | 247° |
| 2026-05-07 03:02 | 48.10631 | 10.68610 | 21561 ft | 382 kts | 246° |
| 2026-05-07 03:02 | 48.09710 | 10.64877 | 22029 ft | 384 kts | 246° |
| 2026-05-07 03:02 | 48.08779 | 10.61123 | 22469 ft | 386 kts | 246° |
| 2026-05-07 03:02 | 48.07841 | 10.57347 | 22877 ft | 388 kts | 246° |
| 2026-05-07 03:03 | 48.06899 | 10.53555 | 23280 ft | 391 kts | 246° |
| 2026-05-07 03:03 | 48.05949 | 10.49738 | 23656 ft | 393 kts | 245° |
| 2026-05-07 03:03 | 48.04993 | 10.45899 | 24009 ft | 395 kts | 246° |
| 2026-05-07 03:03 | 48.04032 | 10.42050 | 24353 ft | 396 kts | 246° |
| 2026-05-07 03:04 | 48.03066 | 10.38190 | 24707 ft | 397 kts | 246° |
| 2026-05-07 03:04 | 48.02094 | 10.34323 | 25053 ft | 398 kts | 246° |
| 2026-05-07 03:04 | 48.01132 | 10.30493 | 25408 ft | 400 kts | 246° |
| 2026-05-07 03:04 | 48.00154 | 10.26604 | 25750 ft | 401 kts | 246° |
| 2026-05-07 03:05 | 47.99170 | 10.22704 | 26115 ft | 402 kts | 246° |
| 2026-05-07 03:05 | 47.98178 | 10.18784 | 26431 ft | 404 kts | 246° |
| 2026-05-07 03:05 | 47.97179 | 10.14841 | 26738 ft | 406 kts | 246° |
| 2026-05-07 03:05 | 47.96177 | 10.10890 | 27045 ft | 408 kts | 246° |
| 2026-05-07 03:06 | 47.95169 | 10.06919 | 27349 ft | 410 kts | 246° |
| 2026-05-07 03:06 | 47.94153 | 10.02934 | 27644 ft | 412 kts | 246° |
| 2026-05-07 03:06 | 47.93134 | 9.98938 | 27926 ft | 413 kts | 246° |
| 2026-05-07 03:06 | 47.92111 | 9.94923 | 28208 ft | 415 kts | 246° |
| 2026-05-07 03:07 | 47.91081 | 9.90889 | 28474 ft | 417 kts | 246° |
| 2026-05-07 03:07 | 47.90047 | 9.86846 | 28746 ft | 418 kts | 246° |
| 2026-05-07 03:07 | 47.89020 | 9.82839 | 29000 ft | 420 kts | 246° |
| 2026-05-07 03:07 | 47.87972 | 9.78770 | 29256 ft | 422 kts | 246° |
| 2026-05-07 03:08 | 47.86917 | 9.74682 | 29525 ft | 424 kts | 247° |
| 2026-05-07 03:08 | 47.85854 | 9.70566 | 29673 ft | 428 kts | 247° |
| 2026-05-07 03:08 | 47.84750 | 9.66430 | 29821 ft | 431 kts | 243° |
| 2026-05-07 03:08 | 47.83217 | 9.62598 | 30010 ft | 432 kts | 236° |
| 2026-05-07 03:09 | 47.81636 | 9.58800 | 30264 ft | 432 kts | 238° |
| 2026-05-07 03:09 | 47.80117 | 9.54956 | 30644 ft | 430 kts | 239° |
| 2026-05-07 03:09 | 47.78646 | 9.51098 | 30965 ft | 428 kts | 239° |
| 2026-05-07 03:09 | 47.77193 | 9.47228 | 31248 ft | 428 kts | 239° |
| 2026-05-07 03:10 | 47.75743 | 9.43365 | 31510 ft | 428 kts | 239° |
| 2026-05-07 03:10 | 47.74286 | 9.39512 | 31783 ft | 428 kts | 239° |
| 2026-05-07 03:10 | 47.72820 | 9.35668 | 32042 ft | 427 kts | 239° |
| 2026-05-07 03:10 | 47.71347 | 9.31840 | 32318 ft | 427 kts | 239° |
| 2026-05-07 03:11 | 47.69865 | 9.28015 | 32578 ft | 427 kts | 238° |
| 2026-05-07 03:11 | 47.68376 | 9.24192 | 32803 ft | 429 kts | 239° |
| 2026-05-07 03:11 | 47.66874 | 9.20351 | 32928 ft | 432 kts | 239° |
| 2026-05-07 03:11 | 47.65362 | 9.16486 | 33114 ft | 434 kts | 239° |
| 2026-05-07 03:12 | 47.63847 | 9.12611 | 33367 ft | 433 kts | 239° |
| 2026-05-07 03:12 | 47.62343 | 9.08753 | 33694 ft | 431 kts | 239° |
| 2026-05-07 03:12 | 47.60847 | 9.04910 | 34002 ft | 430 kts | 239° |
| 2026-05-07 03:12 | 47.59351 | 9.01068 | 34253 ft | 430 kts | 239° |
| 2026-05-07 03:13 | 47.57855 | 8.97240 | 34479 ft | 430 kts | 239° |
| 2026-05-07 03:13 | 47.56374 | 8.93459 | 34689 ft | 430 kts | 239° |
| 2026-05-07 03:13 | 47.54872 | 8.89634 | 34891 ft | 430 kts | 239° |
| 2026-05-07 03:13 | 47.53370 | 8.85811 | 34975 ft | 430 kts | 239° |
| 2026-05-07 03:14 | 47.50361 | 8.78172 | 35009 ft | 430 kts | 239° |
| 2026-05-07 03:15 | 47.45822 | 8.66715 | 35003 ft | 430 kts | 239° |
| 2026-05-07 03:15 | 47.42800 | 8.59087 | 35002 ft | 430 kts | 239° |
| 2026-05-07 03:16 | 47.39775 | 8.51480 | 35003 ft | 430 kts | 239° |
| 2026-05-07 03:16 | 47.36737 | 8.43874 | 35002 ft | 430 kts | 239° |
| 2026-05-07 03:17 | 47.33694 | 8.36290 | 34976 ft | 430 kts | 239° |
| 2026-05-07 03:17 | 47.30653 | 8.28708 | 34983 ft | 430 kts | 239° |
| 2026-05-07 03:18 | 47.27606 | 8.21122 | 34973 ft | 431 kts | 239° |
| 2026-05-07 03:18 | 47.24547 | 8.13533 | 34977 ft | 431 kts | 239° |
| 2026-05-07 03:19 | 47.21481 | 8.05951 | 34981 ft | 431 kts | 239° |
| 2026-05-07 03:19 | 47.18401 | 7.98376 | 34986 ft | 431 kts | 239° |
| 2026-05-07 03:20 | 47.15318 | 7.90815 | 34992 ft | 431 kts | 239° |
| 2026-05-07 03:20 | 47.12249 | 7.83304 | 34988 ft | 431 kts | 239° |
| 2026-05-07 03:21 | 47.09162 | 7.75759 | 34990 ft | 431 kts | 239° |
| 2026-05-07 03:21 | 47.06075 | 7.68225 | 34990 ft | 431 kts | 239° |
| 2026-05-07 03:22 | 47.02981 | 7.60703 | 34995 ft | 431 kts | 239° |
| 2026-05-07 03:22 | 46.99876 | 7.53193 | 34993 ft | 431 kts | 239° |
| 2026-05-07 03:23 | 46.96770 | 7.45682 | 35001 ft | 430 kts | 238° |
| 2026-05-07 03:23 | 46.93667 | 7.38188 | 34987 ft | 430 kts | 238° |
| 2026-05-07 03:24 | 46.90554 | 7.30708 | 34996 ft | 430 kts | 239° |
| 2026-05-07 03:24 | 46.87436 | 7.23239 | 34990 ft | 431 kts | 239° |
| 2026-05-07 03:25 | 46.84308 | 7.15769 | 34989 ft | 431 kts | 239° |
| 2026-05-07 03:25 | 46.81198 | 7.08352 | 34992 ft | 431 kts | 239° |
| 2026-05-07 03:26 | 46.78061 | 7.00898 | 34996 ft | 431 kts | 239° |
| 2026-05-07 03:26 | 46.74909 | 6.93459 | 34983 ft | 431 kts | 238° |
| 2026-05-07 03:27 | 46.71746 | 6.86036 | 34995 ft | 431 kts | 238° |
| 2026-05-07 03:27 | 46.68583 | 6.78617 | 34992 ft | 431 kts | 238° |
| 2026-05-07 03:28 | 46.65405 | 6.71187 | 34987 ft | 431 kts | 238° |
| 2026-05-07 03:28 | 46.62235 | 6.63793 | 34983 ft | 431 kts | 238° |
| 2026-05-07 03:29 | 46.59083 | 6.56446 | 34982 ft | 431 kts | 238° |
| 2026-05-07 03:29 | 46.55895 | 6.49066 | 34978 ft | 431 kts | 238° |
| 2026-05-07 03:30 | 46.52705 | 6.41687 | 34982 ft | 431 kts | 238° |
| 2026-05-07 03:30 | 46.49516 | 6.34323 | 34980 ft | 431 kts | 238° |
| 2026-05-07 03:31 | 46.46319 | 6.26968 | 34983 ft | 431 kts | 238° |
| 2026-05-07 03:31 | 46.43116 | 6.19624 | 34982 ft | 431 kts | 238° |
| 2026-05-07 03:32 | 46.39906 | 6.12289 | 34978 ft | 431 kts | 238° |
| 2026-05-07 03:32 | 46.36696 | 6.04951 | 34983 ft | 431 kts | 238° |
| 2026-05-07 03:33 | 46.33506 | 5.97675 | 34985 ft | 431 kts | 238° |
| 2026-05-07 03:33 | 46.30278 | 5.90355 | 34984 ft | 432 kts | 238° |
| 2026-05-07 03:34 | 46.27041 | 5.83029 | 34984 ft | 432 kts | 238° |
| 2026-05-07 03:34 | 46.23801 | 5.75707 | 34988 ft | 433 kts | 238° |
| 2026-05-07 03:35 | 46.20553 | 5.68383 | 34984 ft | 433 kts | 238° |
| 2026-05-07 03:35 | 46.17300 | 5.61077 | 34992 ft | 432 kts | 238° |
| 2026-05-07 03:36 | 46.14038 | 5.53779 | 34994 ft | 433 kts | 238° |
| 2026-05-07 03:36 | 46.10651 | 5.46603 | 34996 ft | 433 kts | 236° |
| 2026-05-07 03:37 | 46.07178 | 5.39503 | 34996 ft | 433 kts | 236° |
| 2026-05-07 03:37 | 46.03717 | 5.32402 | 34984 ft | 433 kts | 236° |
| 2026-05-07 03:38 | 46.00303 | 5.25322 | 34991 ft | 433 kts | 237° |
| 2026-05-07 03:38 | 45.96878 | 5.18199 | 34991 ft | 433 kts | 236° |
| 2026-05-07 03:39 | 45.93440 | 5.11109 | 35008 ft | 433 kts | 236° |
| 2026-05-07 03:39 | 45.89985 | 5.04019 | 35000 ft | 433 kts | 236° |
| 2026-05-07 03:40 | 45.86532 | 4.96941 | 34997 ft | 433 kts | 236° |
| 2026-05-07 03:40 | 45.83077 | 4.89874 | 34995 ft | 432 kts | 236° |
| 2026-05-07 03:41 | 45.79626 | 4.82828 | 35003 ft | 432 kts | 236° |
| 2026-05-07 03:41 | 45.76173 | 4.75792 | 35007 ft | 431 kts | 236° |
| 2026-05-07 03:42 | 45.72712 | 4.68769 | 35007 ft | 431 kts | 236° |
| 2026-05-07 03:42 | 45.69270 | 4.61801 | 35015 ft | 432 kts | 236° |
| 2026-05-07 03:43 | 45.65810 | 4.54786 | 35021 ft | 432 kts | 236° |
| 2026-05-07 03:43 | 45.62341 | 4.47791 | 35031 ft | 431 kts | 236° |
| 2026-05-07 03:44 | 45.58871 | 4.40805 | 35037 ft | 430 kts | 236° |
| 2026-05-07 03:44 | 45.55403 | 4.33844 | 35037 ft | 430 kts | 236° |
| 2026-05-07 03:45 | 45.51929 | 4.26889 | 35033 ft | 430 kts | 236° |
| 2026-05-07 03:45 | 45.49044 | 4.21118 | 35021 ft | 430 kts | 236° |
| 2026-05-07 03:46 | 45.45568 | 4.14195 | 35024 ft | 429 kts | 236° |
| 2026-05-07 03:46 | 45.42084 | 4.07293 | 35024 ft | 429 kts | 236° |
| 2026-05-07 03:47 | 45.38598 | 4.00403 | 35021 ft | 429 kts | 236° |
| 2026-05-07 03:47 | 45.35118 | 3.93512 | 35012 ft | 429 kts | 236° |
| 2026-05-07 03:48 | 45.31641 | 3.86625 | 35002 ft | 428 kts | 236° |
| 2026-05-07 03:48 | 45.28154 | 3.79770 | 35018 ft | 428 kts | 236° |
| 2026-05-07 03:49 | 45.24671 | 3.72935 | 35021 ft | 427 kts | 236° |
| 2026-05-07 03:49 | 45.21288 | 3.66091 | 35032 ft | 426 kts | 237° |
| 2026-05-07 03:50 | 45.17924 | 3.59180 | 35027 ft | 426 kts | 237° |
| 2026-05-07 03:50 | 45.14541 | 3.52288 | 35030 ft | 426 kts | 237° |
| 2026-05-07 03:51 | 45.11144 | 3.45432 | 35034 ft | 425 kts | 237° |
| 2026-05-07 03:51 | 45.07739 | 3.38607 | 35039 ft | 424 kts | 237° |
| 2026-05-07 03:52 | 45.04344 | 3.31798 | 35041 ft | 423 kts | 237° |
| 2026-05-07 03:52 | 45.00955 | 3.24999 | 35037 ft | 423 kts | 237° |
| 2026-05-07 03:53 | 44.97567 | 3.18214 | 35023 ft | 422 kts | 237° |
| 2026-05-07 03:53 | 44.94179 | 3.11446 | 35014 ft | 422 kts | 237° |
| 2026-05-07 03:54 | 44.90781 | 3.04687 | 35007 ft | 421 kts | 237° |
| 2026-05-07 03:54 | 44.87399 | 2.97993 | 35005 ft | 422 kts | 237° |
| 2026-05-07 03:55 | 44.84002 | 2.91247 | 35001 ft | 422 kts | 238° |
| 2026-05-07 03:55 | 44.80778 | 2.84348 | 34993 ft | 421 kts | 239° |
| 2026-05-07 03:56 | 44.77648 | 2.77374 | 34995 ft | 421 kts | 239° |
| 2026-05-07 03:56 | 44.74492 | 2.70426 | 34993 ft | 421 kts | 239° |
| 2026-05-07 03:57 | 44.71288 | 2.63512 | 34989 ft | 422 kts | 239° |
| 2026-05-07 03:57 | 44.68066 | 2.56608 | 34987 ft | 422 kts | 239° |
| 2026-05-07 03:58 | 44.64846 | 2.49701 | 34987 ft | 423 kts | 239° |
| 2026-05-07 03:58 | 44.61620 | 2.42788 | 34989 ft | 423 kts | 239° |
| 2026-05-07 03:59 | 44.58415 | 2.35935 | 34977 ft | 423 kts | 239° |
| 2026-05-07 03:59 | 44.55171 | 2.29005 | 34996 ft | 422 kts | 239° |
| 2026-05-07 04:00 | 44.51971 | 2.22197 | 34994 ft | 421 kts | 239° |
| 2026-05-07 04:00 | 44.48746 | 2.15353 | 34994 ft | 421 kts | 239° |
| 2026-05-07 04:01 | 44.45517 | 2.08516 | 34997 ft | 421 kts | 239° |
| 2026-05-07 04:01 | 44.42282 | 2.01681 | 34997 ft | 421 kts | 238° |
| 2026-05-07 04:02 | 44.39042 | 1.94859 | 34988 ft | 421 kts | 239° |
| 2026-05-07 04:02 | 44.35803 | 1.88052 | 34995 ft | 420 kts | 238° |
| 2026-05-07 04:03 | 44.32563 | 1.81263 | 34995 ft | 420 kts | 238° |
| 2026-05-07 04:03 | 44.29316 | 1.74471 | 34994 ft | 420 kts | 239° |
| 2026-05-07 04:04 | 44.26154 | 1.67667 | 34997 ft | 420 kts | 240° |
| 2026-05-07 04:04 | 44.23011 | 1.60741 | 34996 ft | 420 kts | 240° |
| 2026-05-07 04:05 | 44.19901 | 1.53919 | 34989 ft | 420 kts | 239° |
| 2026-05-07 04:05 | 44.16739 | 1.47067 | 34993 ft | 420 kts | 239° |
| 2026-05-07 04:06 | 44.13565 | 1.40233 | 34992 ft | 420 kts | 239° |
| 2026-05-07 04:06 | 44.10395 | 1.33397 | 34995 ft | 420 kts | 239° |
| 2026-05-07 04:07 | 44.07221 | 1.26568 | 34996 ft | 421 kts | 239° |
| 2026-05-07 04:07 | 44.04033 | 1.19743 | 35003 ft | 421 kts | 239° |
| 2026-05-07 04:08 | 44.00864 | 1.12975 | 34991 ft | 420 kts | 238° |
| 2026-05-07 04:08 | 43.97673 | 1.06177 | 34998 ft | 420 kts | 238° |
| 2026-05-07 04:09 | 43.94485 | 0.99375 | 35002 ft | 420 kts | 238° |
| 2026-05-07 04:09 | 43.91289 | 0.92588 | 35004 ft | 420 kts | 238° |
| 2026-05-07 04:10 | 43.88105 | 0.85802 | 35008 ft | 420 kts | 239° |
| 2026-05-07 04:10 | 43.85085 | 0.78882 | 35007 ft | 419 kts | 241° |
| 2026-05-07 04:11 | 43.82159 | 0.71897 | 34997 ft | 419 kts | 241° |
| 2026-05-07 04:11 | 43.79209 | 0.64953 | 35027 ft | 418 kts | 240° |
| 2026-05-07 04:12 | 43.76241 | 0.58101 | 35027 ft | 417 kts | 240° |
| 2026-05-07 04:12 | 43.73253 | 0.51229 | 35028 ft | 417 kts | 240° |
| 2026-05-07 04:13 | 43.70272 | 0.44366 | 35016 ft | 416 kts | 240° |
| 2026-05-07 04:13 | 43.67287 | 0.37506 | 35016 ft | 416 kts | 240° |
| 2026-05-07 04:14 | 43.64296 | 0.30660 | 35015 ft | 416 kts | 240° |
| 2026-05-07 04:14 | 43.61319 | 0.23868 | 35018 ft | 415 kts | 240° |
| 2026-05-07 04:15 | 43.58324 | 0.17052 | 35024 ft | 414 kts | 240° |
| 2026-05-07 04:15 | 43.55334 | 0.10261 | 35026 ft | 414 kts | 240° |
| 2026-05-07 04:16 | 43.52346 | 0.03477 | 35029 ft | 413 kts | 240° |
| 2026-05-07 04:16 | 43.49354 | -0.03290 | 35029 ft | 413 kts | 240° |
| 2026-05-07 04:17 | 43.46359 | -0.10043 | 35029 ft | 413 kts | 240° |
| 2026-05-07 04:17 | 43.43361 | -0.16792 | 35028 ft | 413 kts | 240° |
| 2026-05-07 04:18 | 43.40390 | -0.23488 | 35020 ft | 412 kts | 240° |
| 2026-05-07 04:18 | 43.37395 | -0.30207 | 35029 ft | 412 kts | 240° |
| 2026-05-07 04:19 | 43.34399 | -0.36908 | 35028 ft | 412 kts | 240° |
| 2026-05-07 04:19 | 43.31399 | -0.43612 | 35033 ft | 411 kts | 240° |
| 2026-05-07 04:20 | 43.28399 | -0.50304 | 35037 ft | 411 kts | 240° |
| 2026-05-07 04:20 | 43.25391 | -0.56981 | 35021 ft | 411 kts | 239° |
| 2026-05-07 04:21 | 43.20893 | -0.66939 | 35004 ft | 410 kts | 239° |
| 2026-05-07 04:21 | 43.17884 | -0.73584 | 35008 ft | 410 kts | 239° |
| 2026-05-07 04:22 | 43.14874 | -0.80220 | 35023 ft | 410 kts | 239° |
| 2026-05-07 04:22 | 43.11859 | -0.86851 | 35026 ft | 410 kts | 239° |
| 2026-05-07 04:23 | 43.08845 | -0.93476 | 35032 ft | 410 kts | 239° |
| 2026-05-07 04:23 | 43.05847 | -1.00053 | 35033 ft | 410 kts | 239° |
| 2026-05-07 04:24 | 43.02820 | -1.06664 | 35030 ft | 410 kts | 239° |
| 2026-05-07 04:24 | 42.99793 | -1.13260 | 35021 ft | 409 kts | 239° |
| 2026-05-07 04:25 | 42.96761 | -1.19839 | 35036 ft | 409 kts | 239° |
| 2026-05-07 04:25 | 42.93732 | -1.26415 | 35036 ft | 409 kts | 239° |
| 2026-05-07 04:26 | 42.90702 | -1.32985 | 35036 ft | 409 kts | 238° |
| 2026-05-07 04:26 | 42.87667 | -1.39544 | 35021 ft | 409 kts | 238° |
| 2026-05-07 04:27 | 42.84626 | -1.46094 | 35004 ft | 409 kts | 238° |
| 2026-05-07 04:27 | 42.81602 | -1.52599 | 35001 ft | 409 kts | 238° |
| 2026-05-07 04:28 | 42.78551 | -1.59138 | 34998 ft | 409 kts | 238° |
| 2026-05-07 04:28 | 42.75492 | -1.65672 | 34997 ft | 409 kts | 238° |
| 2026-05-07 04:29 | 42.72861 | -1.72502 | 34996 ft | 409 kts | 251° |
| 2026-05-07 04:29 | 42.71199 | -1.79900 | 34989 ft | 409 kts | 252° |
| 2026-05-07 04:30 | 42.69537 | -1.87291 | 34991 ft | 409 kts | 252° |
| 2026-05-07 04:30 | 42.67862 | -1.94686 | 35028 ft | 409 kts | 252° |
| 2026-05-07 04:31 | 42.66187 | -2.02079 | 35005 ft | 409 kts | 252° |
| 2026-05-07 04:31 | 42.64499 | -2.09470 | 35001 ft | 410 kts | 252° |
| 2026-05-07 04:32 | 42.62814 | -2.16806 | 34994 ft | 410 kts | 251° |
| 2026-05-07 04:32 | 42.61058 | -2.24157 | 34994 ft | 410 kts | 251° |
| 2026-05-07 04:33 | 42.59260 | -2.31494 | 34997 ft | 410 kts | 250° |
| 2026-05-07 04:33 | 42.57465 | -2.38838 | 34985 ft | 410 kts | 250° |
| 2026-05-07 04:34 | 42.55671 | -2.46186 | 34992 ft | 410 kts | 250° |
| 2026-05-07 04:34 | 42.53873 | -2.53534 | 34984 ft | 410 kts | 250° |
| 2026-05-07 04:35 | 42.52067 | -2.60875 | 34995 ft | 411 kts | 250° |
| 2026-05-07 04:35 | 42.50562 | -2.66976 | 34997 ft | 411 kts | 250° |
| 2026-05-07 04:36 | 42.48748 | -2.74322 | 34999 ft | 411 kts | 250° |
| 2026-05-07 04:36 | 42.46923 | -2.81669 | 35000 ft | 412 kts | 250° |
| 2026-05-07 04:37 | 42.45029 | -2.88984 | 35002 ft | 411 kts | 245° |
| 2026-05-07 04:37 | 42.42640 | -2.96025 | 35004 ft | 411 kts | 244° |
| 2026-05-07 04:38 | 42.40245 | -3.03058 | 35005 ft | 411 kts | 244° |
| 2026-05-07 04:38 | 42.37844 | -3.10095 | 35007 ft | 412 kts | 244° |
| 2026-05-07 04:39 | 42.35438 | -3.17129 | 34989 ft | 412 kts | 244° |
| 2026-05-07 04:39 | 42.33022 | -3.24166 | 34982 ft | 413 kts | 244° |
| 2026-05-07 04:40 | 42.30601 | -3.31199 | 34973 ft | 413 kts | 244° |
| 2026-05-07 04:40 | 42.28176 | -3.38242 | 34974 ft | 413 kts | 244° |
| 2026-05-07 04:41 | 42.25760 | -3.45233 | 34979 ft | 414 kts | 244° |
| 2026-05-07 04:41 | 42.23323 | -3.52268 | 34974 ft | 414 kts | 244° |
| 2026-05-07 04:42 | 42.20884 | -3.59299 | 34973 ft | 414 kts | 243° |
| 2026-05-07 04:42 | 42.18431 | -3.66324 | 34982 ft | 414 kts | 243° |
| 2026-05-07 04:43 | 42.15975 | -3.73340 | 34984 ft | 414 kts | 243° |
| 2026-05-07 04:43 | 42.13521 | -3.80357 | 34984 ft | 414 kts | 243° |
| 2026-05-07 04:44 | 42.11072 | -3.87370 | 34987 ft | 414 kts | 243° |
| 2026-05-07 04:44 | 42.08613 | -3.94371 | 34989 ft | 413 kts | 243° |
| 2026-05-07 04:45 | 42.06158 | -4.01324 | 34988 ft | 413 kts | 243° |
| 2026-05-07 04:45 | 42.03681 | -4.08307 | 34985 ft | 413 kts | 243° |
| 2026-05-07 04:46 | 42.01172 | -4.15252 | 34977 ft | 413 kts | 242° |
| 2026-05-07 04:46 | 41.98555 | -4.22129 | 34975 ft | 412 kts | 241° |
| 2026-05-07 04:47 | 41.95930 | -4.28927 | 34969 ft | 412 kts | 241° |
| 2026-05-07 04:47 | 41.93305 | -4.35779 | 34963 ft | 412 kts | 241° |
| 2026-05-07 04:48 | 41.90688 | -4.42630 | 34958 ft | 412 kts | 241° |
| 2026-05-07 04:48 | 41.88064 | -4.49475 | 34951 ft | 412 kts | 241° |
| 2026-05-07 04:49 | 41.85440 | -4.56309 | 34950 ft | 412 kts | 241° |
| 2026-05-07 04:49 | 41.82809 | -4.63134 | 34951 ft | 412 kts | 241° |
| 2026-05-07 04:50 | 41.80171 | -4.69967 | 34942 ft | 413 kts | 241° |
| 2026-05-07 04:50 | 41.77535 | -4.76799 | 34939 ft | 413 kts | 241° |
| 2026-05-07 04:51 | 41.74882 | -4.83626 | 34939 ft | 413 kts | 240° |
| 2026-05-07 04:51 | 41.72225 | -4.90439 | 34940 ft | 413 kts | 240° |
| 2026-05-07 04:52 | 41.69574 | -4.97263 | 34951 ft | 413 kts | 240° |
| 2026-05-07 04:52 | 41.66930 | -5.04051 | 34937 ft | 414 kts | 240° |
| 2026-05-07 04:53 | 41.64250 | -5.10886 | 34928 ft | 415 kts | 240° |
| 2026-05-07 04:53 | 41.61565 | -5.17729 | 34930 ft | 415 kts | 240° |
| 2026-05-07 04:54 | 41.58880 | -5.24556 | 34931 ft | 415 kts | 240° |
| 2026-05-07 04:54 | 41.56202 | -5.31337 | 34931 ft | 415 kts | 240° |
| 2026-05-07 04:55 | 41.53502 | -5.38168 | 34939 ft | 416 kts | 240° |
| 2026-05-07 04:55 | 41.50794 | -5.45018 | 34935 ft | 417 kts | 240° |
| 2026-05-07 04:56 | 41.48081 | -5.51875 | 34938 ft | 418 kts | 240° |
| 2026-05-07 04:56 | 41.45349 | -5.58727 | 34936 ft | 418 kts | 240° |
| 2026-05-07 04:57 | 41.42612 | -5.65568 | 34940 ft | 418 kts | 240° |
| 2026-05-07 04:57 | 41.39878 | -5.72407 | 34945 ft | 418 kts | 240° |
| 2026-05-07 04:58 | 41.37135 | -5.79248 | 34933 ft | 419 kts | 239° |
| 2026-05-07 04:58 | 41.34388 | -5.86086 | 34931 ft | 419 kts | 240° |
| 2026-05-07 04:59 | 41.31637 | -5.92935 | 34932 ft | 420 kts | 239° |
| 2026-05-07 04:59 | 41.28896 | -5.99735 | 34931 ft | 420 kts | 239° |
| 2026-05-07 05:00 | 41.26125 | -6.06572 | 34930 ft | 420 kts | 239° |
| 2026-05-07 05:00 | 41.23351 | -6.13407 | 34930 ft | 420 kts | 240° |
| 2026-05-07 05:01 | 41.20570 | -6.20255 | 34924 ft | 421 kts | 240° |
| 2026-05-07 05:01 | 41.17782 | -6.27115 | 34916 ft | 422 kts | 239° |
| 2026-05-07 05:02 | 41.14487 | -6.33527 | 34908 ft | 421 kts | 233° |
| 2026-05-07 05:02 | 41.11090 | -6.39857 | 34904 ft | 421 kts | 233° |
| 2026-05-07 05:03 | 41.07695 | -6.46186 | 34906 ft | 421 kts | 233° |
| 2026-05-07 05:03 | 41.04314 | -6.52476 | 34908 ft | 422 kts | 233° |
| 2026-05-07 05:04 | 41.00891 | -6.58823 | 34897 ft | 424 kts | 233° |
| 2026-05-07 05:04 | 40.97450 | -6.65183 | 35032 ft | 427 kts | 233° |
| 2026-05-07 05:05 | 40.95718 | -6.68382 | 35252 ft | 427 kts | 234° |
| 2026-05-07 05:05 | 40.93984 | -6.71581 | 35467 ft | 427 kts | 234° |
| 2026-05-07 05:05 | 40.92248 | -6.74779 | 35681 ft | 428 kts | 234° |
| 2026-05-07 05:05 | 40.90516 | -6.77972 | 35885 ft | 428 kts | 234° |
| 2026-05-07 05:06 | 40.88781 | -6.81168 | 36102 ft | 428 kts | 234° |
| 2026-05-07 05:06 | 40.87043 | -6.84361 | 36312 ft | 428 kts | 234° |
| 2026-05-07 05:06 | 40.85298 | -6.87555 | 36451 ft | 430 kts | 235° |
| 2026-05-07 05:06 | 40.83569 | -6.90726 | 36579 ft | 431 kts | 235° |
| 2026-05-07 05:07 | 40.81813 | -6.93945 | 36739 ft | 432 kts | 235° |
| 2026-05-07 05:07 | 40.80056 | -6.97166 | 36891 ft | 433 kts | 235° |
| 2026-05-07 05:07 | 40.76532 | -7.03611 | 36917 ft | 433 kts | 235° |
| 2026-05-07 05:08 | 40.72999 | -7.10042 | 36920 ft | 433 kts | 235° |
| 2026-05-07 05:08 | 40.69462 | -7.16470 | 36922 ft | 433 kts | 235° |
| 2026-05-07 05:09 | 40.65926 | -7.22889 | 36921 ft | 432 kts | 235° |
| 2026-05-07 05:09 | 40.62407 | -7.29273 | 36917 ft | 434 kts | 235° |
| 2026-05-07 05:10 | 40.58859 | -7.35698 | 36921 ft | 434 kts | 235° |
| 2026-05-07 05:10 | 40.55299 | -7.42133 | 36919 ft | 434 kts | 235° |
| 2026-05-07 05:11 | 40.51739 | -7.48545 | 36923 ft | 434 kts | 235° |
| 2026-05-07 05:11 | 40.48167 | -7.54949 | 36920 ft | 434 kts | 235° |
| 2026-05-07 05:12 | 40.44593 | -7.61345 | 36924 ft | 434 kts | 236° |
| 2026-05-07 05:12 | 40.41022 | -7.67750 | 36917 ft | 435 kts | 236° |
| 2026-05-07 05:13 | 40.37440 | -7.74156 | 36920 ft | 436 kts | 236° |
| 2026-05-07 05:13 | 40.33844 | -7.80562 | 36921 ft | 436 kts | 236° |
| 2026-05-07 05:14 | 40.30259 | -7.86922 | 36924 ft | 436 kts | 235° |
| 2026-05-07 05:14 | 40.26654 | -7.93314 | 36926 ft | 436 kts | 235° |
| 2026-05-07 05:15 | 40.23047 | -7.99705 | 36930 ft | 436 kts | 235° |
| 2026-05-07 05:15 | 40.19441 | -8.06089 | 36924 ft | 436 kts | 236° |
| 2026-05-07 05:16 | 40.15826 | -8.12480 | 36931 ft | 436 kts | 236° |
| 2026-05-07 05:16 | 40.12212 | -8.18847 | 36938 ft | 436 kts | 236° |
| 2026-05-07 05:17 | 40.08588 | -8.25223 | 36939 ft | 436 kts | 236° |
| 2026-05-07 05:17 | 40.04987 | -8.31529 | 36939 ft | 436 kts | 236° |
| 2026-05-07 05:18 | 40.01350 | -8.37875 | 36927 ft | 436 kts | 236° |
| 2026-05-07 05:18 | 39.97723 | -8.44213 | 36927 ft | 436 kts | 236° |
| 2026-05-07 05:19 | 39.94091 | -8.50558 | 36913 ft | 436 kts | 236° |
| 2026-05-07 05:19 | 39.90461 | -8.56888 | 36925 ft | 436 kts | 237° |
| 2026-05-07 05:20 | 39.86818 | -8.63202 | 36928 ft | 436 kts | 237° |
| 2026-05-07 05:20 | 39.83177 | -8.69509 | 36932 ft | 436 kts | 237° |
| 2026-05-07 05:21 | 39.77716 | -8.78958 | 36923 ft | 435 kts | 237° |
| 2026-05-07 05:22 | 39.74091 | -8.85198 | 36924 ft | 435 kts | 237° |
| 2026-05-07 05:22 | 39.70434 | -8.91468 | 36924 ft | 435 kts | 237° |
| 2026-05-07 05:23 | 39.66784 | -8.97741 | 36910 ft | 435 kts | 237° |
| 2026-05-07 05:23 | 39.63134 | -9.04014 | 36918 ft | 435 kts | 237° |
| 2026-05-07 05:24 | 39.59477 | -9.10263 | 36904 ft | 435 kts | 238° |
| 2026-05-07 05:24 | 39.55815 | -9.16513 | 36920 ft | 435 kts | 238° |
| 2026-05-07 05:25 | 39.52153 | -9.22750 | 36925 ft | 435 kts | 238° |
| 2026-05-07 05:25 | 39.49113 | -9.27930 | 36930 ft | 435 kts | 238° |
| 2026-05-07 05:26 | 39.44850 | -9.35173 | 36936 ft | 435 kts | 238° |
| 2026-05-07 05:26 | 39.41800 | -9.40342 | 36932 ft | 435 kts | 238° |
| 2026-05-07 05:27 | 39.38128 | -9.46547 | 36913 ft | 434 kts | 238° |
| 2026-05-07 05:27 | 39.34454 | -9.52739 | 36925 ft | 434 kts | 238° |
| 2026-05-07 05:28 | 39.30773 | -9.58931 | 36933 ft | 434 kts | 238° |
| 2026-05-07 05:28 | 39.27103 | -9.65111 | 36937 ft | 434 kts | 238° |
| 2026-05-07 05:29 | 39.23428 | -9.71289 | 36939 ft | 434 kts | 238° |
| 2026-05-07 05:29 | 39.19743 | -9.77454 | 36940 ft | 434 kts | 238° |
| 2026-05-07 05:30 | 39.16083 | -9.83572 | 36902 ft | 433 kts | 238° |
| 2026-05-07 05:30 | 39.12401 | -9.89716 | 36931 ft | 433 kts | 238° |
| 2026-05-07 05:31 | 39.08714 | -9.95857 | 36927 ft | 433 kts | 238° |
| 2026-05-07 05:31 | 39.04805 | -10.01789 | 36937 ft | 441 kts | 228° |
| 2026-05-07 05:32 | 39.00204 | -10.07020 | 36943 ft | 442 kts | 228° |
| 2026-05-07 05:32 | 38.95605 | -10.12262 | 36946 ft | 442 kts | 228° |
| 2026-05-07 05:33 | 38.91006 | -10.17494 | 36949 ft | 442 kts | 228° |
| 2026-05-07 05:33 | 38.86408 | -10.22717 | 36934 ft | 441 kts | 228° |
| 2026-05-07 05:34 | 38.81806 | -10.27943 | 36945 ft | 442 kts | 228° |
| 2026-05-07 05:34 | 38.77201 | -10.33160 | 36950 ft | 442 kts | 228° |
| 2026-05-07 05:35 | 38.72620 | -10.38331 | 36957 ft | 442 kts | 228° |
| 2026-05-07 05:35 | 38.68005 | -10.43523 | 36960 ft | 441 kts | 228° |
| 2026-05-07 05:36 | 38.63393 | -10.48711 | 36936 ft | 441 kts | 228° |
| 2026-05-07 05:36 | 38.58782 | -10.53894 | 36948 ft | 441 kts | 228° |
| 2026-05-07 05:37 | 38.54165 | -10.59068 | 36935 ft | 441 kts | 228° |
| 2026-05-07 05:37 | 38.49553 | -10.64230 | 36958 ft | 441 kts | 228° |
| 2026-05-07 05:38 | 38.44931 | -10.69390 | 36958 ft | 441 kts | 228° |
| 2026-05-07 05:38 | 38.40314 | -10.74533 | 36961 ft | 441 kts | 228° |
| 2026-05-07 05:39 | 38.35695 | -10.79679 | 36953 ft | 441 kts | 228° |
| 2026-05-07 05:39 | 38.31076 | -10.84816 | 36960 ft | 441 kts | 228° |
| 2026-05-07 05:40 | 38.26455 | -10.89939 | 36968 ft | 441 kts | 228° |
| 2026-05-07 05:40 | 38.21855 | -10.95027 | 36952 ft | 441 kts | 228° |
| 2026-05-07 05:41 | 38.17231 | -11.00138 | 36968 ft | 440 kts | 229° |
| 2026-05-07 05:41 | 38.12605 | -11.05240 | 36960 ft | 440 kts | 229° |
| 2026-05-07 05:42 | 38.07983 | -11.10333 | 36977 ft | 439 kts | 229° |
| 2026-05-07 05:42 | 38.03364 | -11.15410 | 36984 ft | 439 kts | 229° |
| 2026-05-07 05:43 | 37.98742 | -11.20477 | 36987 ft | 439 kts | 229° |
| 2026-05-07 05:43 | 37.94122 | -11.25534 | 36987 ft | 439 kts | 229° |
| 2026-05-07 05:44 | 37.89503 | -11.30583 | 36985 ft | 438 kts | 229° |
| 2026-05-07 05:44 | 37.84925 | -11.35591 | 36985 ft | 437 kts | 229° |
| 2026-05-07 05:45 | 37.80318 | -11.40616 | 36998 ft | 437 kts | 229° |
| 2026-05-07 05:45 | 37.75712 | -11.45620 | 37001 ft | 436 kts | 229° |
| 2026-05-07 05:46 | 37.71121 | -11.50612 | 37000 ft | 435 kts | 229° |
| 2026-05-07 05:46 | 37.66524 | -11.55592 | 36999 ft | 435 kts | 229° |
| 2026-05-07 05:47 | 37.61925 | -11.60566 | 37001 ft | 435 kts | 229° |
| 2026-05-07 05:47 | 37.57326 | -11.65538 | 36982 ft | 435 kts | 229° |
| 2026-05-07 05:48 | 37.52730 | -11.70499 | 36994 ft | 435 kts | 229° |
| 2026-05-07 05:48 | 37.48164 | -11.75430 | 37001 ft | 435 kts | 229° |
| 2026-05-07 05:49 | 37.43530 | -11.80406 | 37004 ft | 435 kts | 229° |
| 2026-05-07 05:49 | 37.38960 | -11.85310 | 37008 ft | 434 kts | 229° |
| 2026-05-07 05:50 | 37.34362 | -11.90240 | 36987 ft | 434 kts | 229° |
| 2026-05-07 05:50 | 37.29764 | -11.95164 | 37002 ft | 434 kts | 229° |
| 2026-05-07 05:51 | 37.25160 | -12.00075 | 37002 ft | 434 kts | 229° |
| 2026-05-07 05:51 | 37.20554 | -12.04980 | 36986 ft | 433 kts | 229° |
| 2026-05-07 05:52 | 37.15966 | -12.09862 | 37017 ft | 431 kts | 229° |
| 2026-05-07 05:52 | 37.11399 | -12.14723 | 37021 ft | 430 kts | 229° |
| 2026-05-07 05:53 | 37.06842 | -12.19562 | 37003 ft | 429 kts | 229° |
| 2026-05-07 05:53 | 37.02327 | -12.24343 | 37015 ft | 427 kts | 229° |
| 2026-05-07 05:54 | 36.97791 | -12.29142 | 37017 ft | 426 kts | 229° |
| 2026-05-07 05:54 | 36.93264 | -12.33927 | 37021 ft | 426 kts | 229° |
| 2026-05-07 05:55 | 36.88742 | -12.38697 | 37018 ft | 425 kts | 229° |
| 2026-05-07 05:55 | 36.84220 | -12.43459 | 37016 ft | 424 kts | 229° |
| 2026-05-07 05:56 | 36.79721 | -12.48199 | 37008 ft | 422 kts | 229° |
| 2026-05-07 05:56 | 36.75228 | -12.52909 | 37021 ft | 421 kts | 228° |
| 2026-05-07 05:57 | 36.70781 | -12.57564 | 37022 ft | 420 kts | 229° |
| 2026-05-07 05:57 | 36.66310 | -12.62239 | 37020 ft | 419 kts | 229° |
| 2026-05-07 05:58 | 36.61845 | -12.66899 | 37019 ft | 419 kts | 228° |
| 2026-05-07 05:58 | 36.57381 | -12.71553 | 37018 ft | 419 kts | 229° |
| 2026-05-07 05:59 | 36.52911 | -12.76217 | 36999 ft | 418 kts | 228° |
| 2026-05-07 05:59 | 36.48452 | -12.80846 | 37021 ft | 417 kts | 228° |
| 2026-05-07 06:00 | 36.44009 | -12.85461 | 37030 ft | 415 kts | 228° |
| 2026-05-07 06:00 | 36.39610 | -12.90020 | 37029 ft | 414 kts | 228° |
| 2026-05-07 06:01 | 36.35191 | -12.94595 | 37029 ft | 413 kts | 228° |
| 2026-05-07 06:01 | 36.30789 | -12.99158 | 37027 ft | 412 kts | 228° |
| 2026-05-07 06:02 | 36.26423 | -13.03772 | 37002 ft | 412 kts | 229° |
| 2026-05-07 06:02 | 36.22082 | -13.08393 | 37011 ft | 412 kts | 229° |
| 2026-05-07 06:03 | 36.17733 | -13.13011 | 37015 ft | 412 kts | 229° |
| 2026-05-07 06:03 | 36.13383 | -13.17618 | 37008 ft | 411 kts | 228° |
| 2026-05-07 06:04 | 36.09027 | -13.22210 | 37019 ft | 411 kts | 228° |
| 2026-05-07 06:04 | 36.04699 | -13.26756 | 37023 ft | 411 kts | 228° |
| 2026-05-07 06:05 | 36.00323 | -13.31358 | 37026 ft | 411 kts | 228° |
| 2026-05-07 06:05 | 35.95998 | -13.35892 | 37015 ft | 410 kts | 228° |
| 2026-05-07 06:06 | 35.91642 | -13.40454 | 37017 ft | 411 kts | 228° |
| 2026-05-07 06:06 | 35.87284 | -13.45015 | 37021 ft | 411 kts | 228° |
| 2026-05-07 06:07 | 35.82928 | -13.49572 | 37015 ft | 410 kts | 228° |
| 2026-05-07 06:07 | 35.78574 | -13.54119 | 37009 ft | 410 kts | 227° |
| 2026-05-07 06:08 | 35.74215 | -13.58659 | 37012 ft | 410 kts | 227° |
| 2026-05-07 06:08 | 35.69852 | -13.63196 | 37006 ft | 410 kts | 227° |
| 2026-05-07 06:09 | 35.65482 | -13.67733 | 37008 ft | 411 kts | 227° |
| 2026-05-07 06:09 | 35.61145 | -13.72241 | 37010 ft | 411 kts | 227° |
| 2026-05-07 06:10 | 35.56763 | -13.76771 | 37015 ft | 412 kts | 227° |
| 2026-05-07 06:10 | 35.52382 | -13.81296 | 37026 ft | 412 kts | 227° |
| 2026-05-07 06:11 | 35.47996 | -13.85824 | 37013 ft | 412 kts | 227° |
| 2026-05-07 06:11 | 35.43614 | -13.90339 | 37004 ft | 411 kts | 227° |
| 2026-05-07 06:12 | 35.39235 | -13.94850 | 37017 ft | 411 kts | 227° |
| 2026-05-07 06:12 | 35.34860 | -13.99348 | 37032 ft | 410 kts | 227° |
| 2026-05-07 06:13 | 35.30487 | -14.03838 | 37036 ft | 410 kts | 227° |
| 2026-05-07 06:13 | 35.26115 | -14.08316 | 37038 ft | 410 kts | 226° |
| 2026-05-07 06:14 | 35.21735 | -14.12787 | 37036 ft | 410 kts | 227° |
| 2026-05-07 06:14 | 35.17367 | -14.17268 | 37036 ft | 410 kts | 227° |
| 2026-05-07 06:15 | 35.12993 | -14.21733 | 37030 ft | 410 kts | 226° |
| 2026-05-07 06:15 | 35.09352 | -14.25436 | 37038 ft | 409 kts | 226° |
| 2026-05-07 06:16 | 35.04978 | -14.29887 | 37040 ft | 409 kts | 226° |
| 2026-05-07 06:16 | 35.00611 | -14.34332 | 37049 ft | 408 kts | 226° |
| 2026-05-07 06:17 | 34.96277 | -14.38743 | 37045 ft | 408 kts | 226° |
| 2026-05-07 06:17 | 34.91909 | -14.43160 | 37039 ft | 408 kts | 226° |
| 2026-05-07 06:18 | 34.87544 | -14.47572 | 37015 ft | 407 kts | 226° |
| 2026-05-07 06:18 | 34.83182 | -14.51982 | 37020 ft | 408 kts | 226° |
| 2026-05-07 06:19 | 34.78812 | -14.56394 | 37023 ft | 408 kts | 226° |
| 2026-05-07 06:19 | 34.74432 | -14.60797 | 37019 ft | 409 kts | 226° |
| 2026-05-07 06:20 | 34.70047 | -14.65202 | 37028 ft | 409 kts | 226° |
| 2026-05-07 06:20 | 34.65668 | -14.69610 | 37034 ft | 409 kts | 226° |
| 2026-05-07 06:21 | 34.61307 | -14.73981 | 37038 ft | 409 kts | 226° |
| 2026-05-07 06:21 | 34.56924 | -14.78378 | 37012 ft | 409 kts | 226° |
| 2026-05-07 06:22 | 34.52535 | -14.82777 | 37019 ft | 410 kts | 226° |
| 2026-05-07 06:22 | 34.45931 | -14.89375 | 37023 ft | 410 kts | 226° |
| 2026-05-07 06:23 | 34.41528 | -14.93764 | 37039 ft | 410 kts | 226° |
| 2026-05-07 06:23 | 34.37118 | -14.98141 | 37044 ft | 410 kts | 226° |
| 2026-05-07 06:24 | 34.32718 | -15.02508 | 37041 ft | 409 kts | 226° |
| 2026-05-07 06:24 | 34.28325 | -15.06886 | 37013 ft | 409 kts | 226° |
| 2026-05-07 06:25 | 34.23920 | -15.11263 | 37017 ft | 410 kts | 226° |
| 2026-05-07 06:25 | 34.19507 | -15.15639 | 36783 ft | 411 kts | 226° |
| 2026-05-07 06:26 | 34.17292 | -15.17828 | 36518 ft | 411 kts | 225° |
| 2026-05-07 06:26 | 34.15103 | -15.19985 | 36262 ft | 411 kts | 225° |
| 2026-05-07 06:26 | 34.12884 | -15.22168 | 36012 ft | 412 kts | 225° |
| 2026-05-07 06:26 | 34.10661 | -15.24357 | 35760 ft | 413 kts | 225° |
| 2026-05-07 06:27 | 34.08441 | -15.26552 | 35509 ft | 413 kts | 225° |
| 2026-05-07 06:27 | 34.06218 | -15.28752 | 35263 ft | 414 kts | 225° |
| 2026-05-07 06:27 | 34.03990 | -15.30953 | 35023 ft | 415 kts | 225° |
| 2026-05-07 06:27 | 34.01750 | -15.33160 | 34759 ft | 415 kts | 225° |
| 2026-05-07 06:28 | 33.99510 | -15.35360 | 34518 ft | 416 kts | 225° |
| 2026-05-07 06:28 | 33.97262 | -15.37563 | 34283 ft | 417 kts | 225° |
| 2026-05-07 06:28 | 33.95012 | -15.39767 | 34046 ft | 418 kts | 225° |
| 2026-05-07 06:28 | 33.92753 | -15.41983 | 33779 ft | 418 kts | 225° |
| 2026-05-07 06:29 | 33.90496 | -15.44195 | 33509 ft | 419 kts | 225° |
| 2026-05-07 06:29 | 33.88236 | -15.46412 | 33244 ft | 419 kts | 225° |
| 2026-05-07 06:29 | 33.85969 | -15.48634 | 32980 ft | 420 kts | 224° |
| 2026-05-07 06:29 | 33.83702 | -15.50853 | 32717 ft | 421 kts | 224° |
| 2026-05-07 06:30 | 33.81428 | -15.53077 | 32293 ft | 421 kts | 224° |
| 2026-05-07 06:30 | 33.79165 | -15.55287 | 31708 ft | 417 kts | 224° |
| 2026-05-07 06:30 | 33.76927 | -15.57471 | 31133 ft | 412 kts | 224° |
| 2026-05-07 06:30 | 33.74715 | -15.59629 | 30568 ft | 408 kts | 224° |
| 2026-05-07 06:31 | 33.72523 | -15.61769 | 29963 ft | 404 kts | 224° |
| 2026-05-07 06:31 | 33.70356 | -15.63881 | 29396 ft | 399 kts | 224° |
| 2026-05-07 06:31 | 33.68210 | -15.65966 | 28857 ft | 394 kts | 224° |
| 2026-05-07 06:31 | 33.66099 | -15.68016 | 28325 ft | 389 kts | 224° |
| 2026-05-07 06:32 | 33.64011 | -15.70044 | 27799 ft | 384 kts | 224° |
| 2026-05-07 06:32 | 33.61971 | -15.72025 | 27288 ft | 381 kts | 224° |
| 2026-05-07 06:32 | 33.59908 | -15.74036 | 26768 ft | 383 kts | 224° |
| 2026-05-07 06:32 | 33.57847 | -15.76046 | 26244 ft | 381 kts | 224° |
| 2026-05-07 06:33 | 33.55804 | -15.78053 | 25733 ft | 377 kts | 226° |
| 2026-05-07 06:33 | 33.53923 | -15.80213 | 25230 ft | 373 kts | 228° |
| 2026-05-07 06:33 | 33.52078 | -15.82378 | 24748 ft | 370 kts | 228° |
| 2026-05-07 06:33 | 33.50249 | -15.84522 | 24272 ft | 367 kts | 228° |
| 2026-05-07 06:34 | 33.48431 | -15.86654 | 23814 ft | 364 kts | 228° |
| 2026-05-07 06:34 | 33.46622 | -15.88773 | 23320 ft | 362 kts | 228° |
| 2026-05-07 06:34 | 33.44825 | -15.90874 | 22879 ft | 360 kts | 228° |
| 2026-05-07 06:34 | 33.43039 | -15.92962 | 22421 ft | 358 kts | 228° |
| 2026-05-07 06:35 | 33.41256 | -15.95049 | 22024 ft | 358 kts | 228° |
| 2026-05-07 06:35 | 33.39483 | -15.97125 | 21593 ft | 356 kts | 228° |
| 2026-05-07 06:35 | 33.37715 | -15.99191 | 21150 ft | 354 kts | 228° |
| 2026-05-07 06:35 | 33.35957 | -16.01246 | 20714 ft | 352 kts | 227° |
| 2026-05-07 06:36 | 33.34208 | -16.03288 | 20274 ft | 351 kts | 227° |
| 2026-05-07 06:36 | 33.32465 | -16.05319 | 19825 ft | 349 kts | 227° |
| 2026-05-07 06:36 | 33.30731 | -16.07338 | 19382 ft | 347 kts | 227° |
| 2026-05-07 06:36 | 33.29004 | -16.09350 | 18929 ft | 345 kts | 227° |
| 2026-05-07 06:37 | 33.27286 | -16.11350 | 18476 ft | 344 kts | 227° |
| 2026-05-07 06:37 | 33.25577 | -16.13338 | 17984 ft | 342 kts | 227° |
| 2026-05-07 06:37 | 33.23873 | -16.15318 | 17530 ft | 341 kts | 227° |
| 2026-05-07 06:37 | 33.22200 | -16.17261 | 17093 ft | 339 kts | 227° |
| 2026-05-07 06:38 | 33.20512 | -16.19217 | 16653 ft | 337 kts | 227° |
| 2026-05-07 06:38 | 33.18831 | -16.21166 | 16209 ft | 336 kts | 227° |
| 2026-05-07 06:38 | 33.17158 | -16.23107 | 15787 ft | 335 kts | 227° |
| 2026-05-07 06:38 | 33.15492 | -16.25038 | 15369 ft | 333 kts | 227° |
| 2026-05-07 06:39 | 33.13832 | -16.26962 | 14918 ft | 332 kts | 227° |
| 2026-05-07 06:39 | 33.12174 | -16.28882 | 14493 ft | 331 kts | 227° |
| 2026-05-07 06:39 | 33.10527 | -16.30788 | 14066 ft | 330 kts | 227° |
| 2026-05-07 06:39 | 33.08882 | -16.32691 | 13607 ft | 329 kts | 227° |
| 2026-05-07 06:40 | 33.07246 | -16.34582 | 13159 ft | 327 kts | 227° |
| 2026-05-07 06:40 | 33.05626 | -16.36449 | 12713 ft | 318 kts | 227° |
| 2026-05-07 06:40 | 33.04071 | -16.38237 | 12278 ft | 303 kts | 227° |
| 2026-05-07 06:40 | 33.02582 | -16.39948 | 11854 ft | 292 kts | 227° |
| 2026-05-07 06:41 | 33.01146 | -16.41600 | 11429 ft | 281 kts | 227° |
| 2026-05-07 06:41 | 32.99761 | -16.43194 | 11013 ft | 273 kts | 227° |
| 2026-05-07 06:41 | 32.98416 | -16.44745 | 10611 ft | 266 kts | 227° |
| 2026-05-07 06:41 | 32.97089 | -16.46281 | 10366 ft | 263 kts | 227° |
| 2026-05-07 06:42 | 32.95797 | -16.47772 | 10309 ft | 262 kts | 227° |
| 2026-05-07 06:42 | 32.94490 | -16.49281 | 10254 ft | 262 kts | 228° |
| 2026-05-07 06:42 | 32.93183 | -16.50791 | 10159 ft | 262 kts | 227° |
| 2026-05-07 06:42 | 32.91860 | -16.52285 | 10044 ft | 262 kts | 226° |
| 2026-05-07 06:43 | 32.90490 | -16.53770 | 9442 ft | 273 kts | 225° |
| 2026-05-07 06:43 | 32.89042 | -16.55312 | 8713 ft | 285 kts | 224° |
| 2026-05-07 06:43 | 32.87577 | -16.56860 | 8493 ft | 276 kts | 224° |
| 2026-05-07 06:43 | 32.86166 | -16.58346 | 8358 ft | 265 kts | 224° |
| 2026-05-07 06:44 | 32.84806 | -16.59781 | 8133 ft | 260 kts | 224° |
| 2026-05-07 06:44 | 32.83440 | -16.61228 | 7613 ft | 265 kts | 224° |
| 2026-05-07 06:44 | 32.82003 | -16.62622 | 7123 ft | 269 kts | 215° |
| 2026-05-07 06:44 | 32.80324 | -16.63645 | 6640 ft | 274 kts | 202° |
| 2026-05-07 06:45 | 32.78506 | -16.64385 | 6125 ft | 277 kts | 201° |
| 2026-05-07 06:45 | 32.76676 | -16.65127 | 5617 ft | 279 kts | 201° |
| 2026-05-07 06:45 | 32.74862 | -16.65864 | 5105 ft | 270 kts | 201° |
| 2026-05-07 06:45 | 32.73120 | -16.66568 | 4637 ft | 260 kts | 201° |
| 2026-05-07 06:46 | 32.71458 | -16.67239 | 4179 ft | 251 kts | 201° |
| 2026-05-07 06:46 | 32.69841 | -16.67890 | 3871 ft | 237 kts | 201° |
| 2026-05-07 06:46 | 32.68327 | -16.68498 | 3825 ft | 224 kts | 200° |
| 2026-05-07 06:46 | 32.66876 | -16.69084 | 3738 ft | 215 kts | 200° |
| 2026-05-07 06:47 | 32.65482 | -16.69650 | 3640 ft | 208 kts | 201° |
| 2026-05-07 06:47 | 32.64136 | -16.70198 | 3565 ft | 201 kts | 201° |
| 2026-05-07 06:47 | 32.62892 | -16.70962 | 3153 ft | 204 kts | 217° |
| 2026-05-07 06:47 | 32.61881 | -16.72131 | 2615 ft | 202 kts | 234° |
| 2026-05-07 06:48 | 32.61216 | -16.73537 | 2309 ft | 186 kts | 249° |
| 2026-05-07 06:48 | 32.60907 | -16.74933 | 2187 ft | 165 kts | 262° |
| 2026-05-07 06:48 | 32.60865 | -16.76205 | 2104 ft | 147 kts | 274° |
| 2026-05-07 06:48 | 32.61029 | -16.77369 | 2027 ft | 141 kts | 285° |
| 2026-05-07 06:49 | 32.61402 | -16.78432 | 1877 ft | 139 kts | 301° |
| 2026-05-07 06:49 | 32.62012 | -16.79313 | 1688 ft | 139 kts | 317° |
| 2026-05-07 06:49 | 32.62805 | -16.79958 | 1494 ft | 138 kts | 333° |
| 2026-05-07 06:49 | 32.63708 | -16.80304 | 1317 ft | 139 kts | 349° |
| 2026-05-07 06:50 | 32.64670 | -16.80356 | 1132 ft | 139 kts | 359° |
| 2026-05-07 06:50 | 32.65632 | -16.80356 | 959 ft | 138 kts | 360° |
| 2026-05-07 06:50 | 32.66581 | -16.80288 | 774 ft | 136 kts | 11° |
| 2026-05-07 06:50 | 32.67471 | -16.79918 | 605 ft | 136 kts | 27° |
| 2026-05-07 06:51 | 32.68234 | -16.79265 | 409 ft | 136 kts | 43° |
| 2026-05-07 06:51 | 32.68900 | -16.78476 | 237 ft | 135 kts | 42° |
| 2026-05-07 06:51 | 32.69548 | -16.77728 | 175 ft | 117 kts | 44° |
| 2026-05-07 06:51 | 32.70002 | -16.77196 | 196 ft | 66 kts | 44° |
| 2026-05-07 06:52 | 32.70267 | -16.76890 | 192 ft | 29 kts | 45° |
| 2026-05-07 06:52 | 32.70405 | -16.76800 | 202 ft | 17 kts | 44° |
| 2026-05-07 06:52 | 32.70394 | -16.76749 | 189 ft | 11 kts | 175° |
| 2026-05-07 06:52 | 32.70291 | -16.76856 | 194 ft | 24 kts | 225° |
| 2026-05-07 06:53 | 32.70169 | -16.77002 | 188 ft | 25 kts | 224° |
| 2026-05-07 06:53 | 32.70044 | -16.77144 | 191 ft | 25 kts | 219° |
| 2026-05-07 06:53 | 32.69871 | -16.77183 | 190 ft | 27 kts | 187° |
| 2026-05-07 06:53 | 32.69747 | -16.77289 | 175 ft | 22 kts | 228° |
| 2026-05-07 06:54 | 32.69628 | -16.77438 | 169 ft | 24 kts | 226° |
| 2026-05-07 06:54 | 32.69524 | -16.77565 | 169 ft | 20 kts | 226° |
| 2026-05-07 06:54 | 32.69426 | -16.77688 | 169 ft | 20 kts | 227° |
| 2026-05-07 06:54 | 32.69338 | -16.77756 | 169 ft | 10 kts | 160° |
| 2026-05-07 06:55 | 32.69314 | -16.77733 | 169 ft | 1 kts | 138° |
| 2026-05-07 06:55 | 32.69308 | -16.77726 | 169 ft | 1 kts | 138° |
| 2026-05-07 06:55 | 32.69306 | -16.77725 | 169 ft | 0 kts | 138° |